sensor_id;sensor_type;location;lat;lon;timestamp;P1;durP1;ratioP1;P2;durP2;ratioP2
38089;SDS011;23904;52.322;10.232;2023-04-15T00:01:28;7.00;;;5.38;;
38089;SDS011;23904;52.322;10.232;2023-04-15T00:03:54;9.52;;;6.18;;
38089;SDS011;23904;52.322;10.232;2023-04-15T00:06:20;9.70;;;5.18;;
38089;SDS011;23904;52.322;10.232;2023-04-15T00:08:46;7.93;;;5.72;;
38089;SDS011;23904;52.322;10.232;2023-04-15T00:11:12;9.95;;;6.25;;
38089;SDS011;23904;52.322;10.232;2023-04-15T00:13:39;8.45;;;5.95;;
38089;SDS011;23904;52.322;10.232;2023-04-15T00:16:05;8.65;;;5.50;;
38089;SDS011;23904;52.322;10.232;2023-04-15T00:18:32;9.75;;;6.05;;
38089;SDS011;23904;52.322;10.232;2023-04-15T00:20:59;8.18;;;5.70;;
38089;SDS011;23904;52.322;10.232;2023-04-15T00:23:25;10.02;;;6.32;;
38089;SDS011;23904;52.322;10.232;2023-04-15T00:25:51;9.98;;;5.95;;
38089;SDS011;23904;52.322;10.232;2023-04-15T00:28:17;8.60;;;5.60;;
38089;SDS011;23904;52.322;10.232;2023-04-15T00:30:42;9.77;;;5.70;;
38089;SDS011;23904;52.322;10.232;2023-04-15T00:33:08;9.85;;;5.68;;
38089;SDS011;23904;52.322;10.232;2023-04-15T00:35:34;9.77;;;5.35;;
38089;SDS011;23904;52.322;10.232;2023-04-15T00:38:03;9.93;;;6.05;;
38089;SDS011;23904;52.322;10.232;2023-04-15T00:40:31;9.10;;;5.47;;
38089;SDS011;23904;52.322;10.232;2023-04-15T00:42:57;11.93;;;5.82;;
38089;SDS011;23904;52.322;10.232;2023-04-15T00:45:22;8.82;;;5.70;;
38089;SDS011;23904;52.322;10.232;2023-04-15T00:47:50;10.73;;;7.00;;
38089;SDS011;23904;52.322;10.232;2023-04-15T00:50:16;8.98;;;6.53;;
38089;SDS011;23904;52.322;10.232;2023-04-15T00:52:41;9.43;;;6.30;;
38089;SDS011;23904;52.322;10.232;2023-04-15T00:55:07;12.18;;;6.32;;
38089;SDS011;23904;52.322;10.232;2023-04-15T00:57:35;8.63;;;6.15;;
38089;SDS011;23904;52.322;10.232;2023-04-15T01:00:01;8.82;;;6.43;;
38089;SDS011;23904;52.322;10.232;2023-04-15T01:02:29;12.48;;;7.32;;
38089;SDS011;23904;52.322;10.232;2023-04-15T01:04:56;12.15;;;6.65;;
38089;SDS011;23904;52.322;10.232;2023-04-15T01:07:22;9.85;;;6.35;;
38089;SDS011;23904;52.322;10.232;2023-04-15T01:09:47;10.45;;;7.30;;
38089;SDS011;23904;52.322;10.232;2023-04-15T01:12:13;14.00;;;7.68;;
38089;SDS011;23904;52.322;10.232;2023-04-15T01:14:40;10.55;;;7.13;;
38089;SDS011;23904;52.322;10.232;2023-04-15T01:17:06;10.48;;;6.88;;
38089;SDS011;23904;52.322;10.232;2023-04-15T01:19:32;13.27;;;7.65;;
38089;SDS011;23904;52.322;10.232;2023-04-15T01:21:58;12.07;;;7.15;;
38089;SDS011;23904;52.322;10.232;2023-04-15T01:24:25;12.93;;;8.38;;
38089;SDS011;23904;52.322;10.232;2023-04-15T01:26:52;10.90;;;7.93;;
38089;SDS011;23904;52.322;10.232;2023-04-15T01:29:18;11.55;;;7.72;;
38089;SDS011;23904;52.322;10.232;2023-04-15T01:31:53;11.82;;;7.20;;
38089;SDS011;23904;52.322;10.232;2023-04-15T01:34:20;12.93;;;6.95;;
38089;SDS011;23904;52.322;10.232;2023-04-15T01:36:46;11.13;;;7.68;;
38089;SDS011;23904;52.322;10.232;2023-04-15T01:39:12;12.32;;;8.38;;
38089;SDS011;23904;52.322;10.232;2023-04-15T01:41:38;11.43;;;8.00;;
38089;SDS011;23904;52.322;10.232;2023-04-15T01:44:04;9.35;;;6.70;;
38089;SDS011;23904;52.322;10.232;2023-04-15T01:46:31;11.85;;;8.10;;
38089;SDS011;23904;52.322;10.232;2023-04-15T01:48:58;14.93;;;8.20;;
38089;SDS011;23904;52.322;10.232;2023-04-15T01:51:23;12.25;;;8.32;;
38089;SDS011;23904;52.322;10.232;2023-04-15T01:53:49;11.18;;;8.35;;
38089;SDS011;23904;52.322;10.232;2023-04-15T01:56:14;12.45;;;8.80;;
38089;SDS011;23904;52.322;10.232;2023-04-15T01:58:40;12.73;;;8.45;;
38089;SDS011;23904;52.322;10.232;2023-04-15T02:01:06;12.82;;;8.52;;
38089;SDS011;23904;52.322;10.232;2023-04-15T02:03:32;11.90;;;8.40;;
38089;SDS011;23904;52.322;10.232;2023-04-15T02:05:57;14.32;;;9.15;;
38089;SDS011;23904;52.322;10.232;2023-04-15T02:08:23;13.68;;;9.02;;
38089;SDS011;23904;52.322;10.232;2023-04-15T02:10:48;14.45;;;9.48;;
38089;SDS011;23904;52.322;10.232;2023-04-15T02:13:14;15.40;;;9.82;;
38089;SDS011;23904;52.322;10.232;2023-04-15T02:15:40;17.15;;;10.15;;
38089;SDS011;23904;52.322;10.232;2023-04-15T02:18:12;14.85;;;9.35;;
38089;SDS011;23904;52.322;10.232;2023-04-15T02:20:39;17.80;;;10.57;;
38089;SDS011;23904;52.322;10.232;2023-04-15T02:23:05;17.73;;;10.38;;
38089;SDS011;23904;52.322;10.232;2023-04-15T02:25:32;20.15;;;11.85;;
38089;SDS011;23904;52.322;10.232;2023-04-15T02:27:58;19.88;;;12.35;;
38089;SDS011;23904;52.322;10.232;2023-04-15T02:30:23;18.48;;;10.73;;
38089;SDS011;23904;52.322;10.232;2023-04-15T02:32:49;20.23;;;11.52;;
38089;SDS011;23904;52.322;10.232;2023-04-15T02:35:15;19.95;;;12.60;;
38089;SDS011;23904;52.322;10.232;2023-04-15T02:37:43;19.15;;;11.48;;
38089;SDS011;23904;52.322;10.232;2023-04-15T02:40:09;19.27;;;10.90;;
38089;SDS011;23904;52.322;10.232;2023-04-15T02:42:36;21.27;;;13.38;;
38089;SDS011;23904;52.322;10.232;2023-04-15T02:45:03;19.90;;;12.18;;
38089;SDS011;23904;52.322;10.232;2023-04-15T02:47:30;20.58;;;12.80;;
38089;SDS011;23904;52.322;10.232;2023-04-15T02:49:56;19.00;;;12.70;;
38089;SDS011;23904;52.322;10.232;2023-04-15T02:52:24;22.30;;;13.75;;
38089;SDS011;23904;52.322;10.232;2023-04-15T02:54:50;19.98;;;13.02;;
38089;SDS011;23904;52.322;10.232;2023-04-15T02:57:15;19.08;;;12.45;;
38089;SDS011;23904;52.322;10.232;2023-04-15T02:59:41;21.90;;;12.52;;
38089;SDS011;23904;52.322;10.232;2023-04-15T03:02:06;23.30;;;14.00;;
38089;SDS011;23904;52.322;10.232;2023-04-15T03:04:32;20.67;;;13.13;;
38089;SDS011;23904;52.322;10.232;2023-04-15T03:06:58;24.08;;;14.05;;
38089;SDS011;23904;52.322;10.232;2023-04-15T03:09:25;21.38;;;13.77;;
38089;SDS011;23904;52.322;10.232;2023-04-15T03:11:51;21.85;;;12.85;;
38089;SDS011;23904;52.322;10.232;2023-04-15T03:14:18;18.42;;;13.10;;
38089;SDS011;23904;52.322;10.232;2023-04-15T03:16:44;21.27;;;13.73;;
38089;SDS011;23904;52.322;10.232;2023-04-15T03:19:09;20.23;;;12.93;;
38089;SDS011;23904;52.322;10.232;2023-04-15T03:21:35;23.40;;;14.00;;
38089;SDS011;23904;52.322;10.232;2023-04-15T03:24:00;21.70;;;13.73;;
38089;SDS011;23904;52.322;10.232;2023-04-15T03:26:29;25.30;;;15.65;;
38089;SDS011;23904;52.322;10.232;2023-04-15T03:28:56;24.42;;;14.13;;
38089;SDS011;23904;52.322;10.232;2023-04-15T03:31:22;24.27;;;14.45;;
38089;SDS011;23904;52.322;10.232;2023-04-15T03:33:48;21.75;;;14.10;;
38089;SDS011;23904;52.322;10.232;2023-04-15T03:36:14;23.88;;;14.85;;
38089;SDS011;23904;52.322;10.232;2023-04-15T03:38:40;21.80;;;13.80;;
38089;SDS011;23904;52.322;10.232;2023-04-15T03:41:06;22.50;;;14.75;;
38089;SDS011;23904;52.322;10.232;2023-04-15T03:43:33;22.23;;;13.43;;
38089;SDS011;23904;52.322;10.232;2023-04-15T03:45:59;24.17;;;15.68;;
38089;SDS011;23904;52.322;10.232;2023-04-15T03:48:25;23.60;;;14.73;;
38089;SDS011;23904;52.322;10.232;2023-04-15T03:50:50;23.88;;;14.80;;
38089;SDS011;23904;52.322;10.232;2023-04-15T03:53:16;21.65;;;14.38;;
38089;SDS011;23904;52.322;10.232;2023-04-15T03:55:41;22.17;;;14.85;;
38089;SDS011;23904;52.322;10.232;2023-04-15T03:58:07;22.42;;;14.27;;
38089;SDS011;23904;52.322;10.232;2023-04-15T04:00:36;21.48;;;13.95;;
38089;SDS011;23904;52.322;10.232;2023-04-15T04:03:02;23.48;;;14.48;;
38089;SDS011;23904;52.322;10.232;2023-04-15T04:05:28;20.90;;;13.50;;
38089;SDS011;23904;52.322;10.232;2023-04-15T04:07:54;20.00;;;14.13;;
38089;SDS011;23904;52.322;10.232;2023-04-15T04:10:20;23.42;;;14.90;;
38089;SDS011;23904;52.322;10.232;2023-04-15T04:12:45;24.75;;;15.50;;
38089;SDS011;23904;52.322;10.232;2023-04-15T04:15:11;21.67;;;15.60;;
38089;SDS011;23904;52.322;10.232;2023-04-15T04:17:37;24.38;;;15.50;;
38089;SDS011;23904;52.322;10.232;2023-04-15T04:20:02;24.17;;;15.18;;
38089;SDS011;23904;52.322;10.232;2023-04-15T04:22:29;28.15;;;16.90;;
38089;SDS011;23904;52.322;10.232;2023-04-15T04:24:55;26.98;;;17.52;;
38089;SDS011;23904;52.322;10.232;2023-04-15T04:27:23;22.92;;;15.10;;
38089;SDS011;23904;52.322;10.232;2023-04-15T04:29:49;24.10;;;16.33;;
38089;SDS011;23904;52.322;10.232;2023-04-15T04:32:15;27.00;;;17.50;;
38089;SDS011;23904;52.322;10.232;2023-04-15T04:34:40;25.58;;;15.77;;
38089;SDS011;23904;52.322;10.232;2023-04-15T04:37:06;25.13;;;17.08;;
38089;SDS011;23904;52.322;10.232;2023-04-15T04:39:31;25.77;;;16.55;;
38089;SDS011;23904;52.322;10.232;2023-04-15T04:41:57;27.10;;;16.52;;
38089;SDS011;23904;52.322;10.232;2023-04-15T04:44:23;28.25;;;17.80;;
38089;SDS011;23904;52.322;10.232;2023-04-15T04:46:48;26.85;;;17.15;;
38089;SDS011;23904;52.322;10.232;2023-04-15T04:49:14;27.50;;;16.52;;
38089;SDS011;23904;52.322;10.232;2023-04-15T04:51:39;30.02;;;19.17;;
38089;SDS011;23904;52.322;10.232;2023-04-15T04:54:05;26.42;;;16.77;;
38089;SDS011;23904;52.322;10.232;2023-04-15T04:56:30;31.33;;;18.77;;
38089;SDS011;23904;52.322;10.232;2023-04-15T04:58:58;27.15;;;18.83;;
38089;SDS011;23904;52.322;10.232;2023-04-15T05:01:23;30.83;;;19.20;;
38089;SDS011;23904;52.322;10.232;2023-04-15T05:03:50;31.63;;;20.02;;
38089;SDS011;23904;52.322;10.232;2023-04-15T05:06:16;31.92;;;21.05;;
38089;SDS011;23904;52.322;10.232;2023-04-15T05:08:41;28.60;;;18.83;;
38089;SDS011;23904;52.322;10.232;2023-04-15T05:11:07;34.67;;;20.58;;
38089;SDS011;23904;52.322;10.232;2023-04-15T05:13:32;33.40;;;20.67;;
38089;SDS011;23904;52.322;10.232;2023-04-15T05:15:58;35.15;;;22.00;;
38089;SDS011;23904;52.322;10.232;2023-04-15T05:18:24;32.95;;;22.10;;
38089;SDS011;23904;52.322;10.232;2023-04-15T05:20:50;34.60;;;19.67;;
38089;SDS011;23904;52.322;10.232;2023-04-15T05:23:17;34.85;;;20.70;;
38089;SDS011;23904;52.322;10.232;2023-04-15T05:25:45;33.40;;;19.77;;
38089;SDS011;23904;52.322;10.232;2023-04-15T05:28:12;38.08;;;21.55;;
38089;SDS011;23904;52.322;10.232;2023-04-15T05:30:38;32.10;;;21.38;;
38089;SDS011;23904;52.322;10.232;2023-04-15T05:33:04;35.85;;;21.52;;
38089;SDS011;23904;52.322;10.232;2023-04-15T05:35:29;32.95;;;20.20;;
38089;SDS011;23904;52.322;10.232;2023-04-15T05:37:56;30.15;;;19.48;;
38089;SDS011;23904;52.322;10.232;2023-04-15T05:40:22;33.88;;;20.45;;
38089;SDS011;23904;52.322;10.232;2023-04-15T05:42:48;31.15;;;19.33;;
38089;SDS011;23904;52.322;10.232;2023-04-15T05:45:13;31.30;;;19.55;;
38089;SDS011;23904;52.322;10.232;2023-04-15T05:47:39;33.67;;;19.60;;
38089;SDS011;23904;52.322;10.232;2023-04-15T05:50:04;30.15;;;18.85;;
38089;SDS011;23904;52.322;10.232;2023-04-15T05:52:31;34.53;;;19.65;;
38089;SDS011;23904;52.322;10.232;2023-04-15T05:54:56;31.15;;;18.70;;
38089;SDS011;23904;52.322;10.232;2023-04-15T05:57:22;28.67;;;18.73;;
38089;SDS011;23904;52.322;10.232;2023-04-15T05:59:48;29.77;;;18.23;;
38089;SDS011;23904;52.322;10.232;2023-04-15T06:02:15;27.17;;;17.85;;
38089;SDS011;23904;52.322;10.232;2023-04-15T06:04:41;24.92;;;16.35;;
38089;SDS011;23904;52.322;10.232;2023-04-15T06:07:07;27.08;;;17.08;;
38089;SDS011;23904;52.322;10.232;2023-04-15T06:09:32;24.50;;;15.88;;
38089;SDS011;23904;52.322;10.232;2023-04-15T06:11:58;27.27;;;17.50;;
38089;SDS011;23904;52.322;10.232;2023-04-15T06:14:25;25.50;;;16.45;;
38089;SDS011;23904;52.322;10.232;2023-04-15T06:16:51;24.20;;;15.65;;
38089;SDS011;23904;52.322;10.232;2023-04-15T06:19:16;26.05;;;16.63;;
38089;SDS011;23904;52.322;10.232;2023-04-15T06:21:42;25.77;;;15.90;;
38089;SDS011;23904;52.322;10.232;2023-04-15T06:24:08;22.63;;;14.73;;
38089;SDS011;23904;52.322;10.232;2023-04-15T06:26:34;23.08;;;15.48;;
38089;SDS011;23904;52.322;10.232;2023-04-15T06:28:59;22.52;;;14.68;;
38089;SDS011;23904;52.322;10.232;2023-04-15T06:31:25;21.95;;;13.25;;
38089;SDS011;23904;52.322;10.232;2023-04-15T06:33:51;20.55;;;12.95;;
38089;SDS011;23904;52.322;10.232;2023-04-15T06:36:16;17.83;;;11.88;;
38089;SDS011;23904;52.322;10.232;2023-04-15T06:38:42;18.70;;;12.02;;
38089;SDS011;23904;52.322;10.232;2023-04-15T06:41:07;18.42;;;12.13;;
38089;SDS011;23904;52.322;10.232;2023-04-15T06:43:33;19.15;;;11.43;;
38089;SDS011;23904;52.322;10.232;2023-04-15T06:45:59;17.73;;;11.15;;
38089;SDS011;23904;52.322;10.232;2023-04-15T06:48:25;18.35;;;12.38;;
38089;SDS011;23904;52.322;10.232;2023-04-15T06:50:51;17.08;;;11.07;;
38089;SDS011;23904;52.322;10.232;2023-04-15T06:53:17;16.38;;;10.52;;
38089;SDS011;23904;52.322;10.232;2023-04-15T06:55:43;17.58;;;11.52;;
38089;SDS011;23904;52.322;10.232;2023-04-15T06:58:08;14.98;;;10.38;;
38089;SDS011;23904;52.322;10.232;2023-04-15T07:00:34;16.30;;;10.68;;
38089;SDS011;23904;52.322;10.232;2023-04-15T07:02:59;16.13;;;11.07;;
38089;SDS011;23904;52.322;10.232;2023-04-15T07:05:27;16.55;;;10.00;;
38089;SDS011;23904;52.322;10.232;2023-04-15T07:07:56;16.45;;;11.05;;
38089;SDS011;23904;52.322;10.232;2023-04-15T07:10:22;13.23;;;9.60;;
38089;SDS011;23904;52.322;10.232;2023-04-15T07:12:48;15.43;;;9.90;;
38089;SDS011;23904;52.322;10.232;2023-04-15T07:15:15;15.27;;;9.32;;
38089;SDS011;23904;52.322;10.232;2023-04-15T07:17:41;15.35;;;10.23;;
38089;SDS011;23904;52.322;10.232;2023-04-15T07:20:07;14.30;;;10.10;;
38089;SDS011;23904;52.322;10.232;2023-04-15T07:22:33;13.68;;;10.63;;
38089;SDS011;23904;52.322;10.232;2023-04-15T07:24:59;13.77;;;9.85;;
38089;SDS011;23904;52.322;10.232;2023-04-15T07:27:25;14.93;;;10.10;;
38089;SDS011;23904;52.322;10.232;2023-04-15T07:29:51;11.70;;;8.77;;
38089;SDS011;23904;52.322;10.232;2023-04-15T07:32:17;15.60;;;9.27;;
38089;SDS011;23904;52.322;10.232;2023-04-15T07:34:43;14.93;;;9.05;;
38089;SDS011;23904;52.322;10.232;2023-04-15T07:37:09;14.55;;;9.65;;
38089;SDS011;23904;52.322;10.232;2023-04-15T07:39:35;12.93;;;8.68;;
38089;SDS011;23904;52.322;10.232;2023-04-15T07:42:01;12.73;;;9.07;;
38089;SDS011;23904;52.322;10.232;2023-04-15T07:44:28;14.65;;;8.00;;
38089;SDS011;23904;52.322;10.232;2023-04-15T07:46:54;12.50;;;9.20;;
38089;SDS011;23904;52.322;10.232;2023-04-15T07:49:20;13.40;;;8.07;;
38089;SDS011;23904;52.322;10.232;2023-04-15T07:51:46;10.73;;;7.55;;
38089;SDS011;23904;52.322;10.232;2023-04-15T07:54:13;12.10;;;8.48;;
38089;SDS011;23904;52.322;10.232;2023-04-15T07:56:39;10.50;;;7.50;;
38089;SDS011;23904;52.322;10.232;2023-04-15T07:59:05;11.23;;;7.55;;
38089;SDS011;23904;52.322;10.232;2023-04-15T08:01:31;11.65;;;8.23;;
38089;SDS011;23904;52.322;10.232;2023-04-15T08:04:00;12.60;;;8.68;;
38089;SDS011;23904;52.322;10.232;2023-04-15T08:06:26;13.02;;;8.65;;
38089;SDS011;23904;52.322;10.232;2023-04-15T08:08:51;11.77;;;8.20;;
38089;SDS011;23904;52.322;10.232;2023-04-15T08:11:18;11.13;;;7.60;;
38089;SDS011;23904;52.322;10.232;2023-04-15T08:13:45;10.98;;;7.30;;
38089;SDS011;23904;52.322;10.232;2023-04-15T08:16:18;13.02;;;8.07;;
38089;SDS011;23904;52.322;10.232;2023-04-15T08:18:49;11.07;;;6.95;;
38089;SDS011;23904;52.322;10.232;2023-04-15T08:21:16;10.88;;;6.68;;
38089;SDS011;23904;52.322;10.232;2023-04-15T08:23:44;9.63;;;6.22;;
38089;SDS011;23904;52.322;10.232;2023-04-15T08:26:11;10.45;;;6.82;;
38089;SDS011;23904;52.322;10.232;2023-04-15T08:28:37;9.18;;;5.95;;
38089;SDS011;23904;52.322;10.232;2023-04-15T08:31:06;11.02;;;7.10;;
38089;SDS011;23904;52.322;10.232;2023-04-15T08:33:33;10.32;;;6.75;;
38089;SDS011;23904;52.322;10.232;2023-04-15T08:35:58;10.10;;;7.28;;
38089;SDS011;23904;52.322;10.232;2023-04-15T08:38:24;11.05;;;6.07;;
38089;SDS011;23904;52.322;10.232;2023-04-15T08:40:50;10.43;;;6.78;;
38089;SDS011;23904;52.322;10.232;2023-04-15T08:43:22;11.43;;;7.47;;
38089;SDS011;23904;52.322;10.232;2023-04-15T08:45:52;12.18;;;6.68;;
38089;SDS011;23904;52.322;10.232;2023-04-15T08:48:19;9.93;;;6.50;;
38089;SDS011;23904;52.322;10.232;2023-04-15T08:50:46;9.48;;;6.18;;
38089;SDS011;23904;52.322;10.232;2023-04-15T08:53:12;10.32;;;7.55;;
38089;SDS011;23904;52.322;10.232;2023-04-15T08:55:43;9.75;;;6.82;;
38089;SDS011;23904;52.322;10.232;2023-04-15T08:58:11;11.00;;;7.10;;
38089;SDS011;23904;52.322;10.232;2023-04-15T09:00:38;11.35;;;7.43;;
38089;SDS011;23904;52.322;10.232;2023-04-15T09:03:05;9.52;;;6.72;;
38089;SDS011;23904;52.322;10.232;2023-04-15T09:05:33;10.75;;;8.13;;
38089;SDS011;23904;52.322;10.232;2023-04-15T09:08:02;12.45;;;7.93;;
38089;SDS011;23904;52.322;10.232;2023-04-15T09:10:29;9.95;;;7.63;;
38089;SDS011;23904;52.322;10.232;2023-04-15T09:12:57;11.23;;;7.45;;
38089;SDS011;23904;52.322;10.232;2023-04-15T09:15:26;12.13;;;8.10;;
38089;SDS011;23904;52.322;10.232;2023-04-15T09:17:53;10.10;;;7.63;;
38089;SDS011;23904;52.322;10.232;2023-04-15T09:20:20;10.70;;;7.10;;
38089;SDS011;23904;52.322;10.232;2023-04-15T09:22:47;12.60;;;8.52;;
38089;SDS011;23904;52.322;10.232;2023-04-15T09:27:59;13.00;;;8.18;;
38089;SDS011;23904;52.322;10.232;2023-04-15T09:30:26;12.15;;;8.13;;
38089;SDS011;23904;52.322;10.232;2023-04-15T09:32:56;13.07;;;9.40;;
38089;SDS011;23904;52.322;10.232;2023-04-15T09:35:24;12.88;;;8.38;;
38089;SDS011;23904;52.322;10.232;2023-04-15T09:37:51;14.45;;;9.30;;
38089;SDS011;23904;52.322;10.232;2023-04-15T09:40:29;16.85;;;9.90;;
38089;SDS011;23904;52.322;10.232;2023-04-15T09:42:59;15.30;;;10.38;;
38089;SDS011;23904;52.322;10.232;2023-04-15T09:45:27;15.93;;;10.25;;
38089;SDS011;23904;52.322;10.232;2023-04-15T09:47:53;13.63;;;9.45;;
38089;SDS011;23904;52.322;10.232;2023-04-15T09:50:19;18.88;;;10.82;;
38089;SDS011;23904;52.322;10.232;2023-04-15T09:52:44;14.32;;;9.88;;
38089;SDS011;23904;52.322;10.232;2023-04-15T09:55:11;15.60;;;10.32;;
38089;SDS011;23904;52.322;10.232;2023-04-15T09:57:38;16.35;;;10.57;;
38089;SDS011;23904;52.322;10.232;2023-04-15T10:00:08;20.35;;;11.90;;
38089;SDS011;23904;52.322;10.232;2023-04-15T10:02:35;18.15;;;12.88;;
38089;SDS011;23904;52.322;10.232;2023-04-15T10:05:02;20.38;;;13.18;;
38089;SDS011;23904;52.322;10.232;2023-04-15T10:07:28;21.20;;;14.20;;
38089;SDS011;23904;52.322;10.232;2023-04-15T10:09:54;21.75;;;13.93;;
38089;SDS011;23904;52.322;10.232;2023-04-15T10:12:20;22.05;;;13.90;;
38089;SDS011;23904;52.322;10.232;2023-04-15T10:14:51;21.27;;;13.48;;
38089;SDS011;23904;52.322;10.232;2023-04-15T10:17:23;22.23;;;14.93;;
38089;SDS011;23904;52.322;10.232;2023-04-15T10:19:53;20.00;;;13.70;;
38089;SDS011;23904;52.322;10.232;2023-04-15T10:22:20;25.90;;;16.00;;
38089;SDS011;23904;52.322;10.232;2023-04-15T10:24:47;23.80;;;16.10;;
38089;SDS011;23904;52.322;10.232;2023-04-15T10:27:13;29.40;;;17.35;;
38089;SDS011;23904;52.322;10.232;2023-04-15T10:29:41;25.17;;;15.82;;
38089;SDS011;23904;52.322;10.232;2023-04-15T10:32:07;27.25;;;18.02;;
38089;SDS011;23904;52.322;10.232;2023-04-15T10:34:34;24.70;;;18.30;;
38089;SDS011;23904;52.322;10.232;2023-04-15T10:37:01;30.27;;;18.92;;
38089;SDS011;23904;52.322;10.232;2023-04-15T10:42:04;26.05;;;17.80;;
38089;SDS011;23904;52.322;10.232;2023-04-15T10:44:50;26.98;;;18.35;;
38089;SDS011;23904;52.322;10.232;2023-04-15T10:47:19;25.58;;;16.63;;
38089;SDS011;23904;52.322;10.232;2023-04-15T10:49:46;25.83;;;16.60;;
38089;SDS011;23904;52.322;10.232;2023-04-15T10:52:16;29.60;;;18.30;;
38089;SDS011;23904;52.322;10.232;2023-04-15T10:54:47;27.75;;;17.58;;
38089;SDS011;23904;52.322;10.232;2023-04-15T10:57:20;29.17;;;18.30;;
38089;SDS011;23904;52.322;10.232;2023-04-15T11:00:00;30.65;;;19.38;;
38089;SDS011;23904;52.322;10.232;2023-04-15T11:02:39;30.15;;;18.70;;
38089;SDS011;23904;52.322;10.232;2023-04-15T11:05:18;28.90;;;19.48;;
38089;SDS011;23904;52.322;10.232;2023-04-15T11:07:53;33.25;;;20.92;;
38089;SDS011;23904;52.322;10.232;2023-04-15T11:13:02;35.78;;;22.17;;
38089;SDS011;23904;52.322;10.232;2023-04-15T11:15:34;37.25;;;22.85;;
38089;SDS011;23904;52.322;10.232;2023-04-15T11:18:10;38.28;;;23.48;;
38089;SDS011;23904;52.322;10.232;2023-04-15T11:20:55;39.00;;;22.73;;
38089;SDS011;23904;52.322;10.232;2023-04-15T11:23:28;38.72;;;22.95;;
38089;SDS011;23904;52.322;10.232;2023-04-15T11:25:58;43.55;;;25.85;;
38089;SDS011;23904;52.322;10.232;2023-04-15T11:28:27;44.20;;;25.80;;
38089;SDS011;23904;52.322;10.232;2023-04-15T11:30:55;40.30;;;25.40;;
38089;SDS011;23904;52.322;10.232;2023-04-15T11:33:21;42.72;;;26.08;;
38089;SDS011;23904;52.322;10.232;2023-04-15T11:35:48;42.55;;;26.00;;
38089;SDS011;23904;52.322;10.232;2023-04-15T11:38:14;38.85;;;25.70;;
38089;SDS011;23904;52.322;10.232;2023-04-15T11:40:41;43.50;;;28.10;;
38089;SDS011;23904;52.322;10.232;2023-04-15T11:43:15;41.45;;;25.80;;
38089;SDS011;23904;52.322;10.232;2023-04-15T11:45:54;43.30;;;26.50;;
38089;SDS011;23904;52.322;10.232;2023-04-15T11:48:26;41.83;;;27.60;;
38089;SDS011;23904;52.322;10.232;2023-04-15T11:50:54;45.55;;;29.58;;
38089;SDS011;23904;52.322;10.232;2023-04-15T11:53:23;45.92;;;29.98;;
38089;SDS011;23904;52.322;10.232;2023-04-15T11:56:10;53.40;;;30.33;;
38089;SDS011;23904;52.322;10.232;2023-04-15T11:58:41;49.92;;;30.23;;
38089;SDS011;23904;52.322;10.232;2023-04-15T12:01:08;53.53;;;31.50;;
38089;SDS011;23904;52.322;10.232;2023-04-15T12:03:38;53.42;;;33.85;;
38089;SDS011;23904;52.322;10.232;2023-04-15T12:06:22;52.00;;;30.90;;
38089;SDS011;23904;52.322;10.232;2023-04-15T12:12:10;54.60;;;32.33;;
38089;SDS011;23904;52.322;10.232;2023-04-15T12:14:29;60.25;;;34.25;;
38089;SDS011;23904;52.322;10.232;2023-04-15T12:16:57;60.55;;;34.45;;
38089;SDS011;23904;52.322;10.232;2023-04-15T12:19:36;61.78;;;34.42;;
38089;SDS011;23904;52.322;10.232;2023-04-15T12:22:10;60.08;;;33.53;;
38089;SDS011;23904;52.322;10.232;2023-04-15T12:24:41;65.95;;;36.63;;
38089;SDS011;23904;52.322;10.232;2023-04-15T12:27:12;61.60;;;33.35;;
38089;SDS011;23904;52.322;10.232;2023-04-15T12:29:40;73.78;;;39.35;;
38089;SDS011;23904;52.322;10.232;2023-04-15T12:32:10;62.60;;;32.20;;
38089;SDS011;23904;52.322;10.232;2023-04-15T12:34:38;64.55;;;34.85;;
38089;SDS011;23904;52.322;10.232;2023-04-15T12:37:07;62.55;;;33.28;;
38089;SDS011;23904;52.322;10.232;2023-04-15T12:39:36;58.92;;;34.00;;
38089;SDS011;23904;52.322;10.232;2023-04-15T12:42:05;56.35;;;33.00;;
38089;SDS011;23904;52.322;10.232;2023-04-15T12:44:31;58.50;;;33.25;;
38089;SDS011;23904;52.322;10.232;2023-04-15T12:46:58;57.05;;;33.92;;
38089;SDS011;23904;52.322;10.232;2023-04-15T12:49:24;59.80;;;32.97;;
38089;SDS011;23904;52.322;10.232;2023-04-15T12:51:51;55.40;;;32.95;;
38089;SDS011;23904;52.322;10.232;2023-04-15T12:54:19;55.53;;;32.53;;
38089;SDS011;23904;52.322;10.232;2023-04-15T12:56:46;54.78;;;31.25;;
38089;SDS011;23904;52.322;10.232;2023-04-15T12:59:14;56.50;;;31.88;;
38089;SDS011;23904;52.322;10.232;2023-04-15T13:01:41;55.80;;;31.25;;
38089;SDS011;23904;52.322;10.232;2023-04-15T13:04:07;52.88;;;31.27;;
38089;SDS011;23904;52.322;10.232;2023-04-15T13:06:33;50.03;;;30.77;;
38089;SDS011;23904;52.322;10.232;2023-04-15T13:08:58;50.00;;;29.63;;
38089;SDS011;23904;52.322;10.232;2023-04-15T13:11:25;47.28;;;29.23;;
38089;SDS011;23904;52.322;10.232;2023-04-15T13:13:53;43.13;;;27.40;;
38089;SDS011;23904;52.322;10.232;2023-04-15T13:16:19;45.60;;;28.48;;
38089;SDS011;23904;52.322;10.232;2023-04-15T13:18:45;48.45;;;28.90;;
38089;SDS011;23904;52.322;10.232;2023-04-15T13:21:12;42.05;;;27.48;;
38089;SDS011;23904;52.322;10.232;2023-04-15T13:23:38;45.33;;;28.95;;
38089;SDS011;23904;52.322;10.232;2023-04-15T13:26:04;47.63;;;28.80;;
38089;SDS011;23904;52.322;10.232;2023-04-15T13:28:30;44.35;;;27.77;;
38089;SDS011;23904;52.322;10.232;2023-04-15T13:30:55;46.58;;;28.67;;
38089;SDS011;23904;52.322;10.232;2023-04-15T13:33:21;50.03;;;30.33;;
38089;SDS011;23904;52.322;10.232;2023-04-15T13:35:46;55.33;;;30.52;;
38089;SDS011;23904;52.322;10.232;2023-04-15T13:38:12;46.70;;;28.00;;
38089;SDS011;23904;52.322;10.232;2023-04-15T13:40:38;47.83;;;28.95;;
38089;SDS011;23904;52.322;10.232;2023-04-15T13:43:03;44.22;;;27.25;;
38089;SDS011;23904;52.322;10.232;2023-04-15T13:45:29;44.03;;;29.00;;
38089;SDS011;23904;52.322;10.232;2023-04-15T13:47:55;43.60;;;28.48;;
38089;SDS011;23904;52.322;10.232;2023-04-15T13:50:21;45.67;;;28.10;;
38089;SDS011;23904;52.322;10.232;2023-04-15T13:52:47;45.97;;;29.60;;
38089;SDS011;23904;52.322;10.232;2023-04-15T13:55:12;46.95;;;29.10;;
38089;SDS011;23904;52.322;10.232;2023-04-15T13:57:38;42.80;;;28.42;;
38089;SDS011;23904;52.322;10.232;2023-04-15T14:00:04;44.35;;;28.85;;
38089;SDS011;23904;52.322;10.232;2023-04-15T14:02:31;45.80;;;29.83;;
38089;SDS011;23904;52.322;10.232;2023-04-15T14:04:56;45.65;;;29.40;;
38089;SDS011;23904;52.322;10.232;2023-04-15T14:07:22;43.33;;;28.48;;
38089;SDS011;23904;52.322;10.232;2023-04-15T14:09:47;42.72;;;27.77;;
38089;SDS011;23904;52.322;10.232;2023-04-15T14:12:13;42.80;;;27.75;;
38089;SDS011;23904;52.322;10.232;2023-04-15T14:14:39;40.35;;;26.75;;
38089;SDS011;23904;52.322;10.232;2023-04-15T14:17:05;42.35;;;27.88;;
38089;SDS011;23904;52.322;10.232;2023-04-15T14:19:31;46.97;;;30.02;;
38089;SDS011;23904;52.322;10.232;2023-04-15T14:21:57;43.30;;;28.90;;
38089;SDS011;23904;52.322;10.232;2023-04-15T14:24:23;42.75;;;28.33;;